sensor_id;sensor_type;location;lat;lon;timestamp;P1;durP1;ratioP1;P2;durP2;ratioP2
13267;SDS011;6702;47.068;15.458;2022-07-23T00:01:36;11.83;;;11.03;;
13267;SDS011;6702;47.068;15.458;2022-07-23T00:04:40;11.27;;;10.47;;
13267;SDS011;6702;47.068;15.458;2022-07-23T00:07:43;12.20;;;11.40;;
13267;SDS011;6702;47.068;15.458;2022-07-23T00:10:46;11.87;;;11.07;;
13267;SDS011;6702;47.068;15.458;2022-07-23T00:13:51;12.30;;;11.30;;
13267;SDS011;6702;47.068;15.458;2022-07-23T00:16:56;13.53;;;12.47;;
13267;SDS011;6702;47.068;15.458;2022-07-23T00:19:59;12.30;;;11.30;;
13267;SDS011;6702;47.068;15.458;2022-07-23T00:23:03;13.60;;;12.27;;
13267;SDS011;6702;47.068;15.458;2022-07-23T00:26:06;12.53;;;11.63;;
13267;SDS011;6702;47.068;15.458;2022-07-23T00:29:10;12.27;;;11.27;;
13267;SDS011;6702;47.068;15.458;2022-07-23T00:32:14;13.73;;;12.63;;
13267;SDS011;6702;47.068;15.458;2022-07-23T00:35:38;11.53;;;10.63;;
13267;SDS011;6702;47.068;15.458;2022-07-23T00:38:42;11.77;;;10.60;;
13267;SDS011;6702;47.068;15.458;2022-07-23T00:41:45;11.73;;;10.93;;
13267;SDS011;6702;47.068;15.458;2022-07-23T00:44:50;11.23;;;10.33;;
13267;SDS011;6702;47.068;15.458;2022-07-23T00:47:53;10.77;;;9.97;;
13267;SDS011;6702;47.068;15.458;2022-07-23T00:50:56;12.17;;;11.07;;
13267;SDS011;6702;47.068;15.458;2022-07-23T00:53:59;12.20;;;11.40;;
13267;SDS011;6702;47.068;15.458;2022-07-23T00:57:02;11.87;;;10.97;;
13267;SDS011;6702;47.068;15.458;2022-07-23T01:00:09;12.33;;;11.33;;
13267;SDS011;6702;47.068;15.458;2022-07-23T01:03:14;12.43;;;11.53;;
13267;SDS011;6702;47.068;15.458;2022-07-23T01:06:17;12.13;;;11.27;;
13267;SDS011;6702;47.068;15.458;2022-07-23T01:09:20;12.17;;;11.20;;
13267;SDS011;6702;47.068;15.458;2022-07-23T01:12:23;13.00;;;12.03;;
13267;SDS011;6702;47.068;15.458;2022-07-23T01:15:28;13.30;;;12.20;;
13267;SDS011;6702;47.068;15.458;2022-07-23T01:18:31;13.53;;;12.50;;
13267;SDS011;6702;47.068;15.458;2022-07-23T01:21:35;13.07;;;12.17;;
13267;SDS011;6702;47.068;15.458;2022-07-23T01:24:41;13.23;;;12.23;;
13267;SDS011;6702;47.068;15.458;2022-07-23T01:27:44;14.70;;;13.50;;
13267;SDS011;6702;47.068;15.458;2022-07-23T01:30:47;14.27;;;13.17;;
13267;SDS011;6702;47.068;15.458;2022-07-23T01:33:51;14.67;;;13.60;;
13267;SDS011;6702;47.068;15.458;2022-07-23T01:36:54;14.70;;;13.50;;
13267;SDS011;6702;47.068;15.458;2022-07-23T01:39:58;15.10;;;13.80;;
13267;SDS011;6702;47.068;15.458;2022-07-23T01:43:03;14.73;;;13.53;;
13267;SDS011;6702;47.068;15.458;2022-07-23T01:46:07;13.77;;;12.50;;
13267;SDS011;6702;47.068;15.458;2022-07-23T01:49:10;13.90;;;12.70;;
13267;SDS011;6702;47.068;15.458;2022-07-23T01:52:14;13.70;;;12.60;;
13267;SDS011;6702;47.068;15.458;2022-07-23T01:55:19;13.10;;;12.10;;
13267;SDS011;6702;47.068;15.458;2022-07-23T01:58:22;12.20;;;11.20;;
13267;SDS011;6702;47.068;15.458;2022-07-23T02:01:25;13.40;;;11.07;;
13267;SDS011;6702;47.068;15.458;2022-07-23T02:04:28;12.00;;;11.10;;
13267;SDS011;6702;47.068;15.458;2022-07-23T02:07:31;13.70;;;12.60;;
13267;SDS011;6702;47.068;15.458;2022-07-23T02:10:37;13.10;;;12.20;;
13267;SDS011;6702;47.068;15.458;2022-07-23T02:13:40;12.93;;;11.87;;
13267;SDS011;6702;47.068;15.458;2022-07-23T02:16:43;11.77;;;10.80;;
13267;SDS011;6702;47.068;15.458;2022-07-23T02:19:46;12.93;;;11.93;;
13267;SDS011;6702;47.068;15.458;2022-07-23T02:22:49;11.80;;;10.80;;
13267;SDS011;6702;47.068;15.458;2022-07-23T02:25:54;12.23;;;11.30;;
13267;SDS011;6702;47.068;15.458;2022-07-23T02:28:57;11.20;;;10.30;;
13267;SDS011;6702;47.068;15.458;2022-07-23T02:32:01;12.23;;;11.20;;
13267;SDS011;6702;47.068;15.458;2022-07-23T02:35:04;12.70;;;11.70;;
13267;SDS011;6702;47.068;15.458;2022-07-23T02:38:08;13.17;;;11.87;;
13267;SDS011;6702;47.068;15.458;2022-07-23T02:41:13;12.60;;;11.50;;
13267;SDS011;6702;47.068;15.458;2022-07-23T02:44:16;12.53;;;11.53;;
13267;SDS011;6702;47.068;15.458;2022-07-23T02:47:19;13.83;;;12.73;;
13267;SDS011;6702;47.068;15.458;2022-07-23T02:50:22;13.00;;;12.00;;
13267;SDS011;6702;47.068;15.458;2022-07-23T02:53:25;13.90;;;12.70;;
13267;SDS011;6702;47.068;15.458;2022-07-23T02:56:30;12.93;;;11.87;;
13267;SDS011;6702;47.068;15.458;2022-07-23T02:59:33;13.77;;;12.77;;
13267;SDS011;6702;47.068;15.458;2022-07-23T03:02:36;14.73;;;13.63;;
13267;SDS011;6702;47.068;15.458;2022-07-23T03:05:39;15.93;;;14.63;;
13267;SDS011;6702;47.068;15.458;2022-07-23T03:08:42;12.60;;;11.67;;
13267;SDS011;6702;47.068;15.458;2022-07-23T03:11:47;14.10;;;13.00;;
13267;SDS011;6702;47.068;15.458;2022-07-23T03:14:50;14.50;;;13.30;;
13267;SDS011;6702;47.068;15.458;2022-07-23T03:17:53;14.97;;;13.77;;
13267;SDS011;6702;47.068;15.458;2022-07-23T03:20:56;14.40;;;13.17;;
13267;SDS011;6702;47.068;15.458;2022-07-23T03:23:59;14.83;;;13.53;;
13267;SDS011;6702;47.068;15.458;2022-07-23T03:27:04;13.40;;;12.50;;
13267;SDS011;6702;47.068;15.458;2022-07-23T03:30:07;13.40;;;12.30;;
13267;SDS011;6702;47.068;15.458;2022-07-23T03:33:11;13.13;;;11.90;;
13267;SDS011;6702;47.068;15.458;2022-07-23T03:36:15;14.37;;;13.37;;
13267;SDS011;6702;47.068;15.458;2022-07-23T03:39:18;14.50;;;13.40;;
13267;SDS011;6702;47.068;15.458;2022-07-23T03:42:22;14.60;;;13.40;;
13267;SDS011;6702;47.068;15.458;2022-07-23T03:45:25;13.70;;;12.70;;
13267;SDS011;6702;47.068;15.458;2022-07-23T03:48:28;13.27;;;12.37;;
13267;SDS011;6702;47.068;15.458;2022-07-23T03:51:32;13.50;;;12.37;;
13267;SDS011;6702;47.068;15.458;2022-07-23T03:54:35;13.20;;;12.20;;
13267;SDS011;6702;47.068;15.458;2022-07-23T03:57:39;13.00;;;12.10;;
13267;SDS011;6702;47.068;15.458;2022-07-23T04:00:42;13.77;;;12.57;;
13267;SDS011;6702;47.068;15.458;2022-07-23T04:03:45;12.53;;;11.63;;
13267;SDS011;6702;47.068;15.458;2022-07-23T04:06:48;13.27;;;12.27;;
13267;SDS011;6702;47.068;15.458;2022-07-23T04:09:52;13.87;;;12.67;;
13267;SDS011;6702;47.068;15.458;2022-07-23T04:12:56;14.13;;;13.13;;
13267;SDS011;6702;47.068;15.458;2022-07-23T04:16:00;12.77;;;11.80;;
13267;SDS011;6702;47.068;15.458;2022-07-23T04:19:04;13.50;;;12.30;;
13267;SDS011;6702;47.068;15.458;2022-07-23T04:22:07;13.70;;;12.50;;
13267;SDS011;6702;47.068;15.458;2022-07-23T04:25:10;13.60;;;12.70;;
13267;SDS011;6702;47.068;15.458;2022-07-23T04:28:16;14.57;;;13.37;;
13267;SDS011;6702;47.068;15.458;2022-07-23T04:31:19;15.23;;;13.93;;
13267;SDS011;6702;47.068;15.458;2022-07-23T04:34:22;13.77;;;12.67;;
13267;SDS011;6702;47.068;15.458;2022-07-23T04:37:27;13.80;;;12.70;;
13267;SDS011;6702;47.068;15.458;2022-07-23T04:40:30;14.40;;;13.30;;
13267;SDS011;6702;47.068;15.458;2022-07-23T04:43:35;15.77;;;14.43;;
13267;SDS011;6702;47.068;15.458;2022-07-23T04:46:38;15.13;;;13.93;;
13267;SDS011;6702;47.068;15.458;2022-07-23T04:49:41;15.53;;;14.33;;
13267;SDS011;6702;47.068;15.458;2022-07-23T04:52:45;16.87;;;15.37;;
13267;SDS011;6702;47.068;15.458;2022-07-23T04:55:48;16.80;;;15.60;;
13267;SDS011;6702;47.068;15.458;2022-07-23T04:58:52;15.77;;;14.40;;
13267;SDS011;6702;47.068;15.458;2022-07-23T05:01:55;16.17;;;14.77;;
13267;SDS011;6702;47.068;15.458;2022-07-23T05:04:58;16.57;;;15.30;;
13267;SDS011;6702;47.068;15.458;2022-07-23T05:08:02;16.80;;;15.40;;
13267;SDS011;6702;47.068;15.458;2022-07-23T05:11:05;17.07;;;15.77;;
13267;SDS011;6702;47.068;15.458;2022-07-23T05:14:09;16.97;;;15.77;;
13267;SDS011;6702;47.068;15.458;2022-07-23T05:17:13;17.43;;;16.03;;
13267;SDS011;6702;47.068;15.458;2022-07-23T05:20:16;18.60;;;17.20;;
13267;SDS011;6702;47.068;15.458;2022-07-23T05:23:20;18.47;;;17.07;;
13267;SDS011;6702;47.068;15.458;2022-07-23T05:26:23;16.83;;;15.60;;
13267;SDS011;6702;47.068;15.458;2022-07-23T05:29:27;17.90;;;16.60;;
13267;SDS011;6702;47.068;15.458;2022-07-23T05:32:31;16.63;;;15.20;;
13267;SDS011;6702;47.068;15.458;2022-07-23T05:35:34;17.83;;;16.23;;
13267;SDS011;6702;47.068;15.458;2022-07-23T05:38:37;18.47;;;16.97;;
13267;SDS011;6702;47.068;15.458;2022-07-23T05:41:41;18.60;;;17.20;;
13267;SDS011;6702;47.068;15.458;2022-07-23T05:44:45;18.47;;;16.87;;
13267;SDS011;6702;47.068;15.458;2022-07-23T05:47:48;19.00;;;17.37;;
13267;SDS011;6702;47.068;15.458;2022-07-23T05:50:52;17.40;;;16.20;;
13267;SDS011;6702;47.068;15.458;2022-07-23T05:53:55;16.47;;;15.23;;
13267;SDS011;6702;47.068;15.458;2022-07-23T05:56:58;17.37;;;15.50;;
13267;SDS011;6702;47.068;15.458;2022-07-23T06:00:03;19.10;;;17.70;;
13267;SDS011;6702;47.068;15.458;2022-07-23T06:03:08;17.40;;;16.00;;
13267;SDS011;6702;47.068;15.458;2022-07-23T06:06:11;18.97;;;17.67;;
13267;SDS011;6702;47.068;15.458;2022-07-23T06:09:14;18.60;;;17.00;;
13267;SDS011;6702;47.068;15.458;2022-07-23T06:12:17;19.67;;;18.20;;
13267;SDS011;6702;47.068;15.458;2022-07-23T06:15:22;18.47;;;16.80;;
13267;SDS011;6702;47.068;15.458;2022-07-23T06:18:25;19.87;;;18.20;;
13267;SDS011;6702;47.068;15.458;2022-07-23T06:21:28;19.53;;;18.03;;
13267;SDS011;6702;47.068;15.458;2022-07-23T06:24:48;18.27;;;16.97;;
13267;SDS011;6702;47.068;15.458;2022-07-23T06:27:52;16.95;;;15.82;;
13267;SDS011;6702;47.068;15.458;2022-07-23T06:30:57;16.73;;;15.52;;
13267;SDS011;6702;47.068;15.458;2022-07-23T06:34:02;18.15;;;16.65;;
13267;SDS011;6702;47.068;15.458;2022-07-23T06:37:05;17.40;;;16.20;;
13267;SDS011;6702;47.068;15.458;2022-07-23T06:40:09;18.05;;;16.85;;
13267;SDS011;6702;47.068;15.458;2022-07-23T06:43:14;18.13;;;16.83;;
13267;SDS011;6702;47.068;15.458;2022-07-23T06:46:18;15.57;;;14.55;;
13267;SDS011;6702;47.068;15.458;2022-07-23T06:49:22;16.67;;;15.60;;
13267;SDS011;6702;47.068;15.458;2022-07-23T06:52:26;15.98;;;14.85;;
13267;SDS011;6702;47.068;15.458;2022-07-23T06:55:29;23.70;;;21.40;;
13267;SDS011;6702;47.068;15.458;2022-07-23T06:58:32;18.10;;;16.52;;
13267;SDS011;6702;47.068;15.458;2022-07-23T07:01:37;16.45;;;15.35;;
13267;SDS011;6702;47.068;15.458;2022-07-23T07:04:40;16.42;;;15.13;;
13267;SDS011;6702;47.068;15.458;2022-07-23T07:07:43;16.60;;;15.30;;
13267;SDS011;6702;47.068;15.458;2022-07-23T07:10:46;15.00;;;14.00;;
13267;SDS011;6702;47.068;15.458;2022-07-23T07:13:49;13.38;;;12.38;;
13267;SDS011;6702;47.068;15.458;2022-07-23T07:16:54;14.07;;;13.02;;
13267;SDS011;6702;47.068;15.458;2022-07-23T07:19:57;14.35;;;13.45;;
13267;SDS011;6702;47.068;15.458;2022-07-23T07:23:00;14.57;;;13.57;;
13267;SDS011;6702;47.068;15.458;2022-07-23T07:26:03;14.18;;;13.18;;
13267;SDS011;6702;47.068;15.458;2022-07-23T07:29:06;15.38;;;14.07;;
13267;SDS011;6702;47.068;15.458;2022-07-23T07:32:11;14.10;;;13.10;;
13267;SDS011;6702;47.068;15.458;2022-07-23T07:35:34;15.00;;;13.93;;
13267;SDS011;6702;47.068;15.458;2022-07-23T07:38:37;15.75;;;14.48;;
13267;SDS011;6702;47.068;15.458;2022-07-23T07:41:40;15.60;;;14.50;;
13267;SDS011;6702;47.068;15.458;2022-07-23T07:44:43;15.25;;;14.10;;
13267;SDS011;6702;47.068;15.458;2022-07-23T07:47:48;14.82;;;13.75;;
13267;SDS011;6702;47.068;15.458;2022-07-23T07:50:52;14.80;;;13.80;;
13267;SDS011;6702;47.068;15.458;2022-07-23T07:53:55;14.40;;;13.57;;
13267;SDS011;6702;47.068;15.458;2022-07-23T07:56:59;14.98;;;13.98;;
13267;SDS011;6702;47.068;15.458;2022-07-23T08:00:09;14.05;;;13.15;;
13267;SDS011;6702;47.068;15.458;2022-07-23T08:03:14;13.95;;;13.05;;
13267;SDS011;6702;47.068;15.458;2022-07-23T08:06:17;14.23;;;13.38;;
13267;SDS011;6702;47.068;15.458;2022-07-23T08:09:21;12.48;;;11.68;;
13267;SDS011;6702;47.068;15.458;2022-07-23T08:12:24;12.13;;;11.32;;
13267;SDS011;6702;47.068;15.458;2022-07-23T08:15:28;12.63;;;11.90;;
13267;SDS011;6702;47.068;15.458;2022-07-23T08:18:33;13.60;;;12.70;;
13267;SDS011;6702;47.068;15.458;2022-07-23T08:21:36;11.77;;;10.70;;
13267;SDS011;6702;47.068;15.458;2022-07-23T08:24:39;11.80;;;10.98;;
13267;SDS011;6702;47.068;15.458;2022-07-23T08:27:42;10.93;;;10.23;;
13267;SDS011;6702;47.068;15.458;2022-07-23T08:30:46;10.90;;;10.10;;
13267;SDS011;6702;47.068;15.458;2022-07-23T08:33:50;11.07;;;10.38;;
13267;SDS011;6702;47.068;15.458;2022-07-23T08:36:54;12.80;;;11.60;;
13267;SDS011;6702;47.068;15.458;2022-07-23T08:39:57;12.80;;;11.90;;
13267;SDS011;6702;47.068;15.458;2022-07-23T08:43:00;13.30;;;12.50;;
13267;SDS011;6702;47.068;15.458;2022-07-23T08:46:08;12.68;;;11.93;;
13267;SDS011;6702;47.068;15.458;2022-07-23T08:49:13;12.63;;;11.75;;
13267;SDS011;6702;47.068;15.458;2022-07-23T08:52:17;12.15;;;11.20;;
13267;SDS011;6702;47.068;15.458;2022-07-23T08:55:27;11.18;;;10.27;;
13267;SDS011;6702;47.068;15.458;2022-07-23T08:58:30;8.38;;;7.88;;
13267;SDS011;6702;47.068;15.458;2022-07-23T09:01:34;10.13;;;9.43;;
13267;SDS011;6702;47.068;15.458;2022-07-23T09:04:39;10.90;;;10.15;;
13267;SDS011;6702;47.068;15.458;2022-07-23T09:08:03;10.35;;;9.75;;
13267;SDS011;6702;47.068;15.458;2022-07-23T09:11:08;12.65;;;11.85;;
13267;SDS011;6702;47.068;15.458;2022-07-23T09:14:12;12.48;;;11.60;;
13267;SDS011;6702;47.068;15.458;2022-07-23T09:17:15;13.88;;;12.88;;
13267;SDS011;6702;47.068;15.458;2022-07-23T09:20:21;13.55;;;12.45;;
13267;SDS011;6702;47.068;15.458;2022-07-23T09:23:31;14.15;;;12.93;;
13267;SDS011;6702;47.068;15.458;2022-07-23T09:26:41;14.50;;;13.60;;
13267;SDS011;6702;47.068;15.458;2022-07-23T09:29:54;15.52;;;14.13;;
13267;SDS011;6702;47.068;15.458;2022-07-23T09:33:05;15.50;;;14.40;;
13267;SDS011;6702;47.068;15.458;2022-07-23T09:36:10;14.73;;;13.70;;
13267;SDS011;6702;47.068;15.458;2022-07-23T09:39:15;14.55;;;13.50;;
13267;SDS011;6702;47.068;15.458;2022-07-23T09:42:27;14.50;;;13.43;;
13267;SDS011;6702;47.068;15.458;2022-07-23T09:45:30;14.10;;;13.20;;
13267;SDS011;6702;47.068;15.458;2022-07-23T09:48:33;14.77;;;13.75;;
13267;SDS011;6702;47.068;15.458;2022-07-23T09:51:41;10.23;;;9.43;;
13267;SDS011;6702;47.068;15.458;2022-07-23T09:54:47;8.77;;;8.18;;
13267;SDS011;6702;47.068;15.458;2022-07-23T09:58:01;8.63;;;7.93;;
13267;SDS011;6702;47.068;15.458;2022-07-23T10:01:05;8.70;;;8.15;;
13267;SDS011;6702;47.068;15.458;2022-07-23T10:04:09;9.05;;;8.45;;
13267;SDS011;6702;47.068;15.458;2022-07-23T10:07:14;8.60;;;8.00;;
13267;SDS011;6702;47.068;15.458;2022-07-23T10:10:20;10.68;;;8.45;;
13267;SDS011;6702;47.068;15.458;2022-07-23T10:13:24;9.30;;;8.55;;
13267;SDS011;6702;47.068;15.458;2022-07-23T10:16:45;8.95;;;8.25;;
13267;SDS011;6702;47.068;15.458;2022-07-23T10:19:50;7.93;;;7.13;;
13267;SDS011;6702;47.068;15.458;2022-07-23T10:22:56;7.68;;;7.07;;
13267;SDS011;6702;47.068;15.458;2022-07-23T10:26:10;8.95;;;8.25;;
13267;SDS011;6702;47.068;15.458;2022-07-23T10:29:21;7.32;;;6.82;;
13267;SDS011;6702;47.068;15.458;2022-07-23T10:32:36;7.80;;;7.30;;
13267;SDS011;6702;47.068;15.458;2022-07-23T10:35:47;8.05;;;7.55;;
13267;SDS011;6702;47.068;15.458;2022-07-23T10:38:56;9.82;;;9.13;;
13267;SDS011;6702;47.068;15.458;2022-07-23T10:42:10;10.20;;;9.50;;
13267;SDS011;6702;47.068;15.458;2022-07-23T10:45:27;11.55;;;10.82;;
13267;SDS011;6702;47.068;15.458;2022-07-23T10:48:32;10.07;;;9.38;;
13267;SDS011;6702;47.068;15.458;2022-07-23T10:51:38;11.32;;;10.60;;
13267;SDS011;6702;47.068;15.458;2022-07-23T10:54:42;12.55;;;11.68;;
13267;SDS011;6702;47.068;15.458;2022-07-23T10:57:47;12.07;;;11.27;;
13267;SDS011;6702;47.068;15.458;2022-07-23T11:00:51;12.18;;;11.27;;
13267;SDS011;6702;47.068;15.458;2022-07-23T11:03:55;11.43;;;10.65;;
13267;SDS011;6702;47.068;15.458;2022-07-23T11:07:07;13.05;;;12.15;;
13267;SDS011;6702;47.068;15.458;2022-07-23T11:10:24;12.68;;;11.88;;
13267;SDS011;6702;47.068;15.458;2022-07-23T11:13:36;11.85;;;11.13;;
13267;SDS011;6702;47.068;15.458;2022-07-23T11:16:46;10.95;;;10.05;;
13267;SDS011;6702;47.068;15.458;2022-07-23T11:23:16;10.43;;;9.70;;
13267;SDS011;6702;47.068;15.458;2022-07-23T11:29:48;9.38;;;8.68;;
13267;SDS011;6702;47.068;15.458;2022-07-23T11:32:53;11.13;;;10.32;;
13267;SDS011;6702;47.068;15.458;2022-07-23T11:36:00;10.25;;;9.65;;
13267;SDS011;6702;47.068;15.458;2022-07-23T11:39:05;10.38;;;9.75;;
13267;SDS011;6702;47.068;15.458;2022-07-23T11:42:11;10.55;;;9.85;;
13267;SDS011;6702;47.068;15.458;2022-07-23T11:45:21;9.80;;;9.10;;
13267;SDS011;6702;47.068;15.458;2022-07-23T11:48:25;10.52;;;9.63;;
13267;SDS011;6702;47.068;15.458;2022-07-23T11:51:29;10.35;;;9.68;;
13267;SDS011;6702;47.068;15.458;2022-07-23T11:54:34;11.02;;;10.32;;
13267;SDS011;6702;47.068;15.458;2022-07-23T11:57:42;10.68;;;9.98;;
13267;SDS011;6702;47.068;15.458;2022-07-23T12:00:46;11.00;;;10.30;;
13267;SDS011;6702;47.068;15.458;2022-07-23T12:03:50;11.25;;;10.55;;
13267;SDS011;6702;47.068;15.458;2022-07-23T12:06:54;11.63;;;10.57;;
13267;SDS011;6702;47.068;15.458;2022-07-23T12:09:57;10.60;;;9.90;;
13267;SDS011;6702;47.068;15.458;2022-07-23T12:13:03;9.07;;;8.48;;
13267;SDS011;6702;47.068;15.458;2022-07-23T12:16:08;10.10;;;9.40;;
13267;SDS011;6702;47.068;15.458;2022-07-23T12:19:11;10.88;;;9.90;;
13267;SDS011;6702;47.068;15.458;2022-07-23T12:22:15;11.38;;;10.68;;
13267;SDS011;6702;47.068;15.458;2022-07-23T12:25:19;11.10;;;10.30;;
13267;SDS011;6702;47.068;15.458;2022-07-23T12:28:28;11.13;;;10.32;;
13267;SDS011;6702;47.068;15.458;2022-07-23T12:31:33;11.55;;;10.75;;
13267;SDS011;6702;47.068;15.458;2022-07-23T12:34:39;11.27;;;10.25;;
13267;SDS011;6702;47.068;15.458;2022-07-23T12:37:42;11.43;;;10.57;;
13267;SDS011;6702;47.068;15.458;2022-07-23T12:40:47;11.60;;;10.80;;
13267;SDS011;6702;47.068;15.458;2022-07-23T12:43:53;10.77;;;10.07;;
13267;SDS011;6702;47.068;15.458;2022-07-23T12:46:57;11.23;;;10.43;;
13267;SDS011;6702;47.068;15.458;2022-07-23T12:50:00;11.20;;;10.40;;
13267;SDS011;6702;47.068;15.458;2022-07-23T12:53:06;11.63;;;10.63;;
13267;SDS011;6702;47.068;15.458;2022-07-23T12:56:27;11.68;;;10.95;;
13267;SDS011;6702;47.068;15.458;2022-07-23T12:59:32;11.70;;;10.80;;
13267;SDS011;6702;47.068;15.458;2022-07-23T13:02:44;10.82;;;10.02;;
13267;SDS011;6702;47.068;15.458;2022-07-23T13:05:48;11.88;;;11.13;;
13267;SDS011;6702;47.068;15.458;2022-07-23T13:08:52;11.52;;;10.82;;
13267;SDS011;6702;47.068;15.458;2022-07-23T13:11:56;12.10;;;11.05;;
13267;SDS011;6702;47.068;15.458;2022-07-23T13:15:02;11.32;;;10.52;;
13267;SDS011;6702;47.068;15.458;2022-07-23T13:18:05;12.02;;;11.23;;
13267;SDS011;6702;47.068;15.458;2022-07-23T13:21:08;11.85;;;11.05;;
13267;SDS011;6702;47.068;15.458;2022-07-23T13:24:12;11.77;;;10.98;;
13267;SDS011;6702;47.068;15.458;2022-07-23T13:27:15;12.13;;;11.32;;
13267;SDS011;6702;47.068;15.458;2022-07-23T13:30:21;12.38;;;11.52;;
13267;SDS011;6702;47.068;15.458;2022-07-23T13:33:25;11.32;;;10.63;;
13267;SDS011;6702;47.068;15.458;2022-07-23T13:36:28;11.63;;;10.93;;
13267;SDS011;6702;47.068;15.458;2022-07-23T13:39:31;11.70;;;10.90;;
13267;SDS011;6702;47.068;15.458;2022-07-23T13:42:39;12.05;;;11.15;;
13267;SDS011;6702;47.068;15.458;2022-07-23T13:45:44;11.18;;;10.38;;
13267;SDS011;6702;47.068;15.458;2022-07-23T13:48:48;10.63;;;9.82;;
13267;SDS011;6702;47.068;15.458;2022-07-23T13:51:51;11.32;;;10.63;;
13267;SDS011;6702;47.068;15.458;2022-07-23T13:54:54;10.68;;;10.07;;
13267;SDS011;6702;47.068;15.458;2022-07-23T13:57:58;10.15;;;9.45;;
13267;SDS011;6702;47.068;15.458;2022-07-23T14:01:03;10.10;;;9.50;;
13267;SDS011;6702;47.068;15.458;2022-07-23T14:04:06;11.43;;;10.60;;
13267;SDS011;6702;47.068;15.458;2022-07-23T14:07:10;9.60;;;9.00;;
13267;SDS011;6702;47.068;15.458;2022-07-23T14:10:13;10.30;;;9.60;;
13267;SDS011;6702;47.068;15.458;2022-07-23T14:13:16;10.65;;;10.05;;
13267;SDS011;6702;47.068;15.458;2022-07-23T14:16:23;9.52;;;8.93;;
13267;SDS011;6702;47.068;15.458;2022-07-23T14:19:27;9.90;;;9.30;;
13267;SDS011;6702;47.068;15.458;2022-07-23T14:22:31;10.90;;;10.25;;
13267;SDS011;6702;47.068;15.458;2022-07-23T14:25:36;10.20;;;9.50;;
13267;SDS011;6702;47.068;15.458;2022-07-23T14:28:39;10.82;;;9.98;;
13267;SDS011;6702;47.068;15.458;2022-07-23T14:31:44;9.27;;;8.68;;
13267;SDS011;6702;47.068;15.458;2022-07-23T14:34:48;10.80;;;10.10;;
13267;SDS011;6702;47.068;15.458;2022-07-23T14:37:51;11.13;;;10.32;;
13267;SDS011;6702;47.068;15.458;2022-07-23T14:40:55;10.82;;;9.85;;
13267;SDS011;6702;47.068;15.458;2022-07-23T14:44:00;10.63;;;9.70;;
13267;SDS011;6702;47.068;15.458;2022-07-23T14:47:07;10.32;;;9.65;;
13267;SDS011;6702;47.068;15.458;2022-07-23T14:50:10;11.40;;;10.68;;
13267;SDS011;6702;47.068;15.458;2022-07-23T14:53:14;10.75;;;9.82;;
13267;SDS011;6702;47.068;15.458;2022-07-23T14:56:23;11.00;;;10.27;;
13267;SDS011;6702;47.068;15.458;2022-07-23T14:59:26;9.50;;;8.90;;
13267;SDS011;6702;47.068;15.458;2022-07-23T15:02:31;11.18;;;10.48;;
13267;SDS011;6702;47.068;15.458;2022-07-23T15:05:35;10.45;;;9.75;;
13267;SDS011;6702;47.068;15.458;2022-07-23T15:08:38;11.10;;;10.30;;
13267;SDS011;6702;47.068;15.458;2022-07-23T15:11:41;11.32;;;10.52;;
13267;SDS011;6702;47.068;15.458;2022-07-23T15:14:45;11.57;;;10.75;;
13267;SDS011;6702;47.068;15.458;2022-07-23T15:17:49;10.93;;;10.23;;
13267;SDS011;6702;47.068;15.458;2022-07-23T15:20:52;11.05;;;10.32;;
13267;SDS011;6702;47.068;15.458;2022-07-23T15:23:55;10.35;;;9.65;;
13267;SDS011;6702;47.068;15.458;2022-07-23T15:27:00;10.20;;;9.40;;
13267;SDS011;6702;47.068;15.458;2022-07-23T15:30:05;10.43;;;9.77;;
13267;SDS011;6702;47.068;15.458;2022-07-23T15:33:11;11.65;;;10.85;;
13267;SDS011;6702;47.068;15.458;2022-07-23T15:36:21;10.90;;;10.20;;
13267;SDS011;6702;47.068;15.458;2022-07-23T15:39:25;10.90;;;10.00;;
13267;SDS011;6702;47.068;15.458;2022-07-23T15:42:29;10.63;;;9.82;;
13267;SDS011;6702;47.068;15.458;2022-07-23T15:45:32;10.60;;;9.63;;
13267;SDS011;6702;47.068;15.458;2022-07-23T15:48:38;11.60;;;9.90;;
13267;SDS011;6702;47.068;15.458;2022-07-23T15:51:41;10.68;;;9.95;;
13267;SDS011;6702;47.068;15.458;2022-07-23T15:54:48;13.52;;;12.63;;
13267;SDS011;6702;47.068;15.458;2022-07-23T15:57:52;12.80;;;11.70;;
13267;SDS011;6702;47.068;15.458;2022-07-23T16:00:55;12.63;;;11.52;;
13267;SDS011;6702;47.068;15.458;2022-07-23T16:04:00;12.20;;;11.25;;
13267;SDS011;6702;47.068;15.458;2022-07-23T16:07:03;12.35;;;11.35;;
13267;SDS011;6702;47.068;15.458;2022-07-23T16:10:11;10.90;;;10.05;;
13267;SDS011;6702;47.068;15.458;2022-07-23T16:13:14;11.45;;;10.35;;
13267;SDS011;6702;47.068;15.458;2022-07-23T16:16:17;11.45;;;10.65;;
13267;SDS011;6702;47.068;15.458;2022-07-23T16:19:25;10.60;;;9.70;;
13267;SDS011;6702;47.068;15.458;2022-07-23T16:22:28;10.75;;;10.05;;
13267;SDS011;6702;47.068;15.458;2022-07-23T16:25:32;10.02;;;9.25;;
13267;SDS011;6702;47.068;15.458;2022-07-23T16:28:36;9.43;;;8.73;;
13267;SDS011;6702;47.068;15.458;2022-07-23T16:31:39;9.55;;;8.75;;
13267;SDS011;6702;47.068;15.458;2022-07-23T16:34:44;9.73;;;8.95;;
13267;SDS011;6702;47.068;15.458;2022-07-23T16:37:48;10.32;;;9.38;;
13267;SDS011;6702;47.068;15.458;2022-07-23T16:40:51;9.65;;;8.77;;
13267;SDS011;6702;47.068;15.458;2022-07-23T16:43:54;9.55;;;8.85;;
13267;SDS011;6702;47.068;15.458;2022-07-23T16:46:57;8.45;;;7.85;;
13267;SDS011;6702;47.068;15.458;2022-07-23T16:50:02;8.45;;;7.85;;
13267;SDS011;6702;47.068;15.458;2022-07-23T16:53:08;9.07;;;8.38;;
13267;SDS011;6702;47.068;15.458;2022-07-23T16:56:11;7.97;;;7.43;;
13267;SDS011;6702;47.068;15.458;2022-07-23T16:59:15;19.63;;;17.25;;
13267;SDS011;6702;47.068;15.458;2022-07-23T17:02:18;13.60;;;12.13;;
13267;SDS011;6702;47.068;15.458;2022-07-23T17:05:22;21.60;;;17.92;;
13267;SDS011;6702;47.068;15.458;2022-07-23T17:08:26;23.58;;;18.73;;
13267;SDS011;6702;47.068;15.458;2022-07-23T17:11:29;10.02;;;9.27;;
13267;SDS011;6702;47.068;15.458;2022-07-23T17:14:32;12.05;;;10.35;;
13267;SDS011;6702;47.068;15.458;2022-07-23T17:17:35;10.52;;;8.80;;
13267;SDS011;6702;47.068;15.458;2022-07-23T17:20:41;9.68;;;8.95;;
13267;SDS011;6702;47.068;15.458;2022-07-23T17:23:44;10.25;;;9.45;;
13267;SDS011;6702;47.068;15.458;2022-07-23T17:26:47;10.48;;;9.68;;
13267;SDS011;6702;47.068;15.458;2022-07-23T17:29:51;9.88;;;9.02;;
13267;SDS011;6702;47.068;15.458;2022-07-23T17:32:54;8.98;;;8.27;;
13267;SDS011;6702;47.068;15.458;2022-07-23T17:35:59;9.70;;;8.93;;
13267;SDS011;6702;47.068;15.458;2022-07-23T17:39:03;9.25;;;8.50;;
13267;SDS011;6702;47.068;15.458;2022-07-23T17:42:07;9.20;;;8.50;;
13267;SDS011;6702;47.068;15.458;2022-07-23T17:45:10;9.55;;;8.68;;
13267;SDS011;6702;47.068;15.458;2022-07-23T17:48:17;9.25;;;8.45;;
13267;SDS011;6702;47.068;15.458;2022-07-23T17:51:21;9.43;;;8.55;;
13267;SDS011;6702;47.068;15.458;2022-07-23T17:54:24;8.63;;;8.00;;
13267;SDS011;6702;47.068;15.458;2022-07-23T17:57:28;8.02;;;7.43;;
13267;SDS011;6702;47.068;15.458;2022-07-23T18:00:32;9.27;;;8.57;;
13267;SDS011;6702;47.068;15.458;2022-07-23T18:03:37;8.32;;;7.53;;
13267;SDS011;6702;47.068;15.458;2022-07-23T18:06:43;8.52;;;7.80;;
13267;SDS011;6702;47.068;15.458;2022-07-23T18:09:46;9.70;;;8.80;;
13267;SDS011;6702;47.068;15.458;2022-07-23T18:12:50;8.27;;;7.68;;